Time;durP1;ratioP1;P1;durP2;ratioP2;P2;SDS_P1;SDS_P2;PMS_P1;PMS_P2;Temp;Humidity;BMP_temperature;BMP_pressure;BME280_temperature;BME280_humidity;BME280_pressure;Samples;Min_cycle;Max_cycle;Signal;HPM_P1;HPM_P2
2022/12/31 00:01:23;;;;;;;0.70;0.60;;;13.60;99.90;;;;;;4867888;29;20460;-78
2022/12/31 00:03:50;;;;;;;0.47;0.47;;;13.60;99.90;;;;;;4852726;29;20113;-77
2022/12/31 00:06:25;;;;;;;0.40;0.30;;;13.60;99.90;;;;;;4855909;29;20097;-76
2022/12/31 00:08:54;;;;;;;0.80;0.38;;;13.70;99.90;;;;;;4852686;29;20065;-75
2022/12/31 00:11:21;;;;;;;2.83;0.50;;;13.60;99.90;;;;;;4870178;29;20034;-77
2022/12/31 00:13:47;;;;;;;0.25;0.20;;;13.60;99.90;;;;;;4866488;29;20037;-77
2022/12/31 00:16:23;;;;;;;1.27;0.30;;;13.60;99.90;;;;;;4870134;29;20077;-77
2022/12/31 00:18:53;;;;;;;0.20;0.10;;;13.60;99.90;;;;;;4865881;29;20040;-77
2022/12/31 00:21:20;;;;;;;0.25;0.20;;;13.50;99.90;;;;;;4869990;29;20513;-77
2022/12/31 00:23:47;;;;;;;0.73;0.52;;;13.40;99.90;;;;;;4866231;29;20097;-76
2022/12/31 00:26:27;;;;;;;1.00;0.17;;;13.40;99.90;;;;;;4870154;29;20127;-76
2022/12/31 00:28:55;;;;;;;0.03;0.00;;;13.30;99.90;;;;;;4851960;29;20090;-77
2022/12/31 00:31:32;;;;;;;0.40;0.30;;;13.20;99.90;;;;;;4870008;29;20049;-77
2022/12/31 00:33:59;;;;;;;0.03;0.03;;;13.20;99.90;;;;;;4865910;29;20041;-77
2022/12/31 00:36:37;;;;;;;0.52;0.40;;;13.30;99.90;;;;;;4855229;29;20086;-78
2022/12/31 00:39:05;;;;;;;0.10;0.10;;;13.20;99.90;;;;;;4865563;29;20033;-77
2022/12/31 00:41:31;;;;;;;0.45;0.30;;;13.20;99.90;;;;;;4869705;29;20112;-77
2022/12/31 00:43:58;;;;;;;0.40;0.20;;;13.20;99.90;;;;;;4851898;29;20038;-77
2022/12/31 00:46:24;;;;;;;0.28;0.25;;;13.10;99.90;;;;;;4851392;29;20134;-78
2022/12/31 00:48:50;;;;;;;0.43;0.30;;;13.10;99.90;;;;;;4865644;29;20066;-78
2022/12/31 00:51:19;;;;;;;1.05;0.60;;;13.10;99.90;;;;;;4855834;29;20041;-78
2022/12/31 00:53:45;;;;;;;0.60;0.28;;;13.20;99.90;;;;;;4851662;29;20037;-79
2022/12/31 00:56:14;;;;;;;0.63;0.47;;;13.10;99.90;;;;;;4855114;29;20046;-79
2022/12/31 00:58:40;;;;;;;0.40;0.30;;;13.10;99.90;;;;;;4851213;29;20028;-79
2022/12/31 01:01:13;;;;;;;2.10;0.40;;;13.10;99.90;;;;;;4866897;29;20554;-80
2022/12/31 01:03:39;;;;;;;0.43;0.32;;;13.20;99.90;;;;;;4865395;29;20057;-81
2022/12/31 01:06:05;;;;;;;0.43;0.32;;;13.20;99.90;;;;;;4866301;29;20069;-82
2022/12/31 01:08:32;;;;;;;0.80;0.52;;;13.20;99.90;;;;;;4851235;29;20372;-82
2022/12/31 01:11:21;;;;;;;1.20;0.68;;;13.30;99.90;;;;;;4856869;29;20045;-81
2022/12/31 01:14:05;;;;;;;1.00;0.73;;;13.30;99.90;;;;;;4857198;23;20055;-68
2022/12/31 01:16:44;;;;;;;0.73;0.73;;;13.30;99.90;;;;;;4830815;29;20127;-68
2022/12/31 01:19:14;;;;;;;0.50;0.50;;;13.40;99.90;;;;;;4827586;29;20041;-68
2022/12/31 01:21:41;;;;;;;0.10;0.07;;;13.40;99.90;;;;;;4836103;29;20037;-68
2022/12/31 01:24:09;;;;;;;0.55;0.45;;;13.50;99.90;;;;;;4827674;29;20298;-68
2022/12/31 01:26:35;;;;;;;0.60;0.30;;;13.50;99.90;;;;;;4849185;29;20042;-69
2022/12/31 01:29:03;;;;;;;5.35;0.63;;;13.60;99.90;;;;;;4843340;29;20033;-68
2022/12/31 01:31:29;;;;;;;0.52;0.30;;;13.60;99.90;;;;;;4834714;29;20128;-69
2022/12/31 01:33:56;;;;;;;0.30;0.20;;;13.70;99.90;;;;;;4834180;29;20109;-69
2022/12/31 01:36:25;;;;;;;0.15;0.15;;;13.70;99.90;;;;;;4847208;29;20507;-67
2022/12/31 01:38:52;;;;;;;0.65;0.40;;;13.70;99.90;;;;;;4834734;29;20033;-67
2022/12/31 01:41:23;;;;;;;1.05;0.50;;;13.80;99.90;;;;;;4846940;29;20034;-67
2022/12/31 01:43:53;;;;;;;0.55;0.40;;;13.80;99.90;;;;;;4830769;29;20066;-67
2022/12/31 01:46:48;;;;;;;0.30;0.30;;;13.80;99.90;;;;;;4825385;29;20045;-68
2022/12/31 01:49:43;;;;;;;2.25;0.40;;;13.80;99.90;;;;;;4831639;29;20075;-67
2022/12/31 01:52:19;;;;;;;1.42;0.40;;;13.80;99.90;;;;;;4824860;29;20039;-67
2022/12/31 01:54:54;;;;;;;0.30;0.30;;;13.80;99.90;;;;;;4824736;29;20053;-68
2022/12/31 01:57:22;;;;;;;0.52;0.50;;;13.90;99.90;;;;;;4802868;29;20395;-68
2022/12/31 01:59:48;;;;;;;0.70;0.38;;;13.90;99.90;;;;;;4839638;29;20030;-68
2022/12/31 02:02:15;;;;;;;0.73;0.40;;;14.00;99.90;;;;;;4852842;29;20030;-67
2022/12/31 02:04:41;;;;;;;1.02;0.35;;;14.00;99.90;;;;;;4821779;29;20035;-68
2022/12/31 02:07:09;;;;;;;0.30;0.30;;;13.90;99.90;;;;;;4833361;29;20039;-68
2022/12/31 02:09:38;;;;;;;0.88;0.40;;;14.00;99.90;;;;;;4838667;29;20525;-68
2022/12/31 02:12:06;;;;;;;0.82;0.40;;;14.00;99.90;;;;;;4839970;29;20042;-68
2022/12/31 02:14:46;;;;;;;0.20;0.20;;;14.00;99.90;;;;;;4838596;29;20039;-68
2022/12/31 02:17:43;;;;;;;0.60;0.28;;;13.90;99.90;;;;;;4852464;29;20034;-68
2022/12/31 02:20:27;;;;;;;0.45;0.38;;;14.00;99.90;;;;;;4830807;29;20042;-68
2022/12/31 02:23:11;;;;;;;0.20;0.20;;;14.00;99.90;;;;;;4834313;29;20072;-68
2022/12/31 02:26:10;;;;;;;0.70;0.40;;;14.00;99.90;;;;;;4824633;29;20041;-68
2022/12/31 02:29:15;;;;;;;0.65;0.32;;;14.00;99.90;;;;;;4797071;29;20049;-68
2022/12/31 02:31:59;;;;;;;0.28;0.20;;;14.00;99.90;;;;;;4831692;29;20045;-70
2022/12/31 02:34:55;;;;;;;0.93;0.55;;;13.90;99.90;;;;;;4825946;29;20051;-70
2022/12/31 02:37:23;;;;;;;0.32;0.30;;;13.90;99.90;;;;;;4817678;29;20035;-70
2022/12/31 02:39:50;;;;;;;0.45;0.30;;;14.00;99.90;;;;;;4842824;29;20034;-70
2022/12/31 02:42:15;;;;;;;2.20;0.70;;;14.00;99.90;;;;;;4832258;29;20062;-70
2022/12/31 02:44:42;;;;;;;3.20;0.28;;;14.00;99.90;;;;;;4838838;29;20631;-70
2022/12/31 02:47:07;;;;;;;0.30;0.22;;;14.10;99.90;;;;;;4838484;29;20394;-70
2022/12/31 02:49:46;;;;;;;0.98;0.52;;;14.10;99.90;;;;;;4824812;29;20034;-70
2022/12/31 02:52:52;;;;;;;4.32;0.30;;;14.20;99.90;;;;;;4852652;29;20060;-70
2022/12/31 02:55:40;;;;;;;0.68;0.40;;;14.30;99.90;;;;;;4828940;29;20058;-70
2022/12/31 03:02:12;;;;;;;2.63;0.35;;;14.30;99.90;;;;;;4835558;29;20049;-71
2022/12/31 03:04:32;;;;;;;1.60;0.80;;;14.30;99.90;;;;;;4765446;29;20040;-70
2022/12/31 03:07:11;;;;;;;0.90;0.50;;;14.30;99.90;;;;;;4765777;30;20063;-70
2022/12/31 03:09:38;;;;;;;0.88;0.60;;;14.50;99.90;;;;;;4803266;29;20537;-70
2022/12/31 03:14:54;;;;;;;1.23;0.57;;;14.50;99.90;;;;;;4829471;29;20046;-70
2022/12/31 03:17:20;;;;;;;0.20;0.17;;;14.50;99.90;;;;;;4840547;29;20042;-70
2022/12/31 03:22:32;;;;;;;0.17;0.17;;;14.60;99.90;;;;;;4808171;29;20034;-71
2022/12/31 03:27:59;;;;;;;0.32;0.28;;;14.60;99.90;;;;;;4836702;29;20038;-70
2022/12/31 03:30:26;;;;;;;3.55;0.55;;;14.60;99.90;;;;;;4834606;29;20065;-71
2022/12/31 03:32:52;;;;;;;1.77;0.50;;;14.60;99.90;;;;;;4850894;29;20061;-71
2022/12/31 03:35:19;;;;;;;0.82;0.25;;;14.50;99.90;;;;;;4834591;29;20038;-71
2022/12/31 03:37:47;;;;;;;0.52;0.40;;;14.50;99.90;;;;;;4851250;29;20037;-70
2022/12/31 03:40:14;;;;;;;4.50;0.70;;;14.40;99.90;;;;;;4848141;29;20495;-71
2022/12/31 03:42:40;;;;;;;1.08;0.40;;;14.40;99.90;;;;;;4837961;29;20030;-70
2022/12/31 03:45:08;;;;;;;1.50;0.57;;;14.40;99.90;;;;;;4833409;29;20030;-70
2022/12/31 03:47:33;;;;;;;1.30;0.20;;;14.30;99.90;;;;;;4852374;29;20065;-71
2022/12/31 03:49:59;;;;;;;2.28;0.38;;;14.20;99.90;;;;;;4832119;29;20090;-68
2022/12/31 03:52:25;;;;;;;1.38;0.30;;;14.20;99.90;;;;;;4854041;29;20038;-69
2022/12/31 03:54:50;;;;;;;1.27;0.45;;;14.10;99.90;;;;;;4831208;29;20030;-68
2022/12/31 03:57:16;;;;;;;0.47;0.40;;;14.10;99.90;;;;;;4840497;29;20138;-69
2022/12/31 03:59:42;;;;;;;0.82;0.35;;;14.10;99.90;;;;;;4830894;29;20035;-69
2022/12/31 04:02:07;;;;;;;1.20;0.40;;;14.20;99.90;;;;;;4836738;29;20142;-69
2022/12/31 04:04:33;;;;;;;0.28;0.28;;;14.20;99.90;;;;;;4837229;29;20041;-69
2022/12/31 04:06:59;;;;;;;0.40;0.30;;;14.20;99.90;;;;;;4832178;29;20057;-69
2022/12/31 04:09:24;;;;;;;0.47;0.25;;;14.30;99.90;;;;;;4828608;29;20034;-69
2022/12/31 04:11:50;;;;;;;0.25;0.20;;;14.30;99.90;;;;;;4841075;29;20464;-69
2022/12/31 04:14:16;;;;;;;0.30;0.20;;;14.30;99.90;;;;;;4830151;29;20042;-68
2022/12/31 04:16:43;;;;;;;2.10;0.60;;;14.30;99.90;;;;;;4836945;29;20143;-69
2022/12/31 04:19:10;;;;;;;0.98;0.75;;;14.40;99.90;;;;;;4833457;29;20124;-69
2022/12/31 04:21:36;;;;;;;0.60;0.25;;;14.30;99.90;;;;;;4850445;29;20030;-69
2022/12/31 04:24:02;;;;;;;0.17;0.17;;;14.30;99.90;;;;;;4834171;29;20044;-70
2022/12/31 04:26:28;;;;;;;1.33;0.52;;;14.40;99.90;;;;;;4835135;29;20041;-70
2022/12/31 04:28:54;;;;;;;0.30;0.20;;;14.40;99.90;;;;;;4849066;29;20042;-70
2022/12/31 04:31:20;;;;;;;0.35;0.20;;;14.40;99.90;;;;;;4848354;29;20041;-70
2022/12/31 04:33:46;;;;;;;0.85;0.40;;;14.50;99.90;;;;;;4835300;29;20419;-70
2022/12/31 04:36:11;;;;;;;0.15;0.10;;;14.50;99.90;;;;;;4831607;29;20041;-70
2022/12/31 04:38:37;;;;;;;7.82;0.50;;;14.50;99.90;;;;;;4842267;29;20030;-70
2022/12/31 04:41:15;;;;;;;1.38;0.30;;;14.70;99.90;;;;;;4833432;29;20045;-70
2022/12/31 04:43:45;;;;;;;0.30;0.25;;;14.90;99.90;;;;;;4835514;29;20041;-70
2022/12/31 04:46:12;;;;;;;0.30;0.30;;;15.10;99.90;;;;;;4846908;29;20052;-70
2022/12/31 04:48:38;;;;;;;1.20;0.40;;;15.20;99.90;;;;;;4835268;29;20045;-70
2022/12/31 04:51:04;;;;;;;0.45;0.22;;;15.40;99.90;;;;;;4833053;29;20041;-70
2022/12/31 04:53:30;;;;;;;0.80;0.45;;;15.50;99.90;;;;;;4831239;29;20034;-69
2022/12/31 04:55:56;;;;;;;0.95;0.38;;;15.60;99.90;;;;;;4833050;29;20040;-70
2022/12/31 04:58:22;;;;;;;1.23;0.30;;;15.60;99.90;;;;;;4835035;29;20030;-70
2022/12/31 05:00:53;;;;;;;0.28;0.10;;;15.80;99.90;;;;;;4847091;29;20079;-69
2022/12/31 05:03:20;;;;;;;0.10;0.10;;;15.80;99.90;;;;;;4847377;29;20108;-70
2022/12/31 05:05:46;;;;;;;0.13;0.13;;;15.80;99.90;;;;;;4829802;29;20125;-70
2022/12/31 05:08:12;;;;;;;0.30;0.30;;;15.90;99.90;;;;;;4834182;29;20102;-70
2022/12/31 05:10:44;;;;;;;2.15;0.30;;;16.00;99.90;;;;;;4828546;29;20388;-70
2022/12/31 05:13:10;;;;;;;0.35;0.20;;;16.00;99.90;;;;;;4824460;29;20657;-70
2022/12/31 05:15:36;;;;;;;0.60;0.38;;;16.00;99.90;;;;;;4846891;29;20061;-70
2022/12/31 05:18:02;;;;;;;0.25;0.13;;;16.00;99.90;;;;;;4834669;29;20531;-70
2022/12/31 05:20:28;;;;;;;1.98;0.50;;;15.90;99.90;;;;;;4832583;29;20022;-70
2022/12/31 05:22:54;;;;;;;0.93;0.55;;;16.00;99.90;;;;;;4830026;29;20034;-70
2022/12/31 05:25:20;;;;;;;0.35;0.25;;;16.00;99.90;;;;;;4832867;29;20052;-69
2022/12/31 05:27:46;;;;;;;0.30;0.20;;;16.10;99.90;;;;;;4835243;29;20599;-70
2022/12/31 05:30:12;;;;;;;1.38;0.40;;;16.10;99.90;;;;;;4832234;29;20054;-69
2022/12/31 05:32:38;;;;;;;1.40;0.50;;;16.00;99.90;;;;;;4834116;29;20034;-70
2022/12/31 05:35:04;;;;;;;5.43;0.45;;;15.80;99.90;;;;;;4828001;29;20716;-70
2022/12/31 05:37:30;;;;;;;1.52;0.75;;;15.70;99.90;;;;;;4849810;29;20517;-70
2022/12/31 05:39:56;;;;;;;0.43;0.20;;;15.60;99.90;;;;;;4841540;29;20038;-70
2022/12/31 05:42:22;;;;;;;0.30;0.10;;;15.60;99.90;;;;;;4838098;29;20394;-70
2022/12/31 05:44:48;;;;;;;0.20;0.20;;;15.50;99.90;;;;;;4829365;29;20057;-70
2022/12/31 05:47:14;;;;;;;0.93;0.30;;;15.50;99.90;;;;;;4838617;29;20435;-69
2022/12/31 05:49:40;;;;;;;1.27;0.30;;;15.50;99.90;;;;;;4828277;29;20026;-70
2022/12/31 05:52:06;;;;;;;0.22;0.10;;;15.50;99.90;;;;;;4838766;29;20347;-69
2022/12/31 05:54:32;;;;;;;0.55;0.30;;;15.70;99.90;;;;;;4829262;29;20502;-69
2022/12/31 05:56:58;;;;;;;0.50;0.22;;;15.60;99.90;;;;;;4851138;29;20037;-69
2022/12/31 05:59:24;;;;;;;0.40;0.20;;;15.50;99.90;;;;;;4830318;29;20113;-70
2022/12/31 06:01:50;;;;;;;0.52;0.22;;;15.60;99.90;;;;;;4836801;29;20138;-69
2022/12/31 06:04:17;;;;;;;1.80;0.22;;;15.60;99.90;;;;;;4830827;29;20170;-69
2022/12/31 06:06:43;;;;;;;1.15;0.57;;;15.70;99.90;;;;;;4835362;29;20034;-69
2022/12/31 06:09:09;;;;;;;1.70;0.40;;;15.90;99.90;;;;;;4846433;29;20038;-69
2022/12/31 06:11:34;;;;;;;0.88;0.47;;;15.90;99.90;;;;;;4837292;29;20507;-69
2022/12/31 06:14:00;;;;;;;5.00;0.30;;;16.00;99.90;;;;;;4828229;29;20049;-69
2022/12/31 06:16:26;;;;;;;0.57;0.20;;;16.10;99.90;;;;;;4847293;29;20521;-70
2022/12/31 06:18:52;;;;;;;0.57;0.30;;;16.10;99.90;;;;;;4848272;29;20081;-70
2022/12/31 06:21:20;;;;;;;5.78;0.82;;;16.10;99.90;;;;;;4832266;29;20090;-69
2022/12/31 06:23:46;;;;;;;0.88;0.30;;;16.10;99.90;;;;;;4834119;29;20034;-70
2022/12/31 06:26:12;;;;;;;0.77;0.45;;;16.00;99.90;;;;;;4831972;29;20037;-70
2022/12/31 06:28:38;;;;;;;1.40;0.63;;;16.00;99.90;;;;;;4834125;29;20030;-71
2022/12/31 06:31:09;;;;;;;0.20;0.20;;;16.00;99.90;;;;;;4832078;29;20103;-70
2022/12/31 06:33:35;;;;;;;1.10;0.30;;;16.00;99.90;;;;;;4835832;29;20033;-71
2022/12/31 06:36:04;;;;;;;0.15;0.10;;;15.90;99.90;;;;;;4835172;29;20045;-70
2022/12/31 06:38:32;;;;;;;4.28;0.52;;;15.80;99.90;;;;;;4837670;29;20084;-70
2022/12/31 06:41:03;;;;;;;1.55;0.52;;;15.80;99.90;;;;;;4835373;29;20069;-71
2022/12/31 06:43:29;;;;;;;0.40;0.10;;;15.80;99.90;;;;;;4849675;29;20026;-73
2022/12/31 06:45:54;;;;;;;0.17;0.10;;;15.70;99.90;;;;;;4835329;29;20190;-71
2022/12/31 06:48:20;;;;;;;0.40;0.17;;;15.60;99.90;;;;;;4837531;29;20091;-69
2022/12/31 06:50:46;;;;;;;0.32;0.20;;;15.60;99.90;;;;;;4835180;29;20038;-70
2022/12/31 06:53:12;;;;;;;0.70;0.38;;;15.60;99.90;;;;;;4833487;29;20061;-68
2022/12/31 06:55:38;;;;;;;0.55;0.30;;;15.60;99.90;;;;;;4835107;29;20072;-68
2022/12/31 06:58:04;;;;;;;0.43;0.30;;;15.50;99.90;;;;;;4837008;29;20141;-70
2022/12/31 07:00:30;;;;;;;1.85;0.40;;;15.50;99.90;;;;;;4825508;29;20027;-70
2022/12/31 07:03:14;;;;;;;0.80;0.30;;;15.50;99.90;;;;;;4827883;29;20023;-70
2022/12/31 07:06:07;;;;;;;0.68;0.40;;;15.50;99.90;;;;;;4834939;29;20060;-70
2022/12/31 07:08:43;;;;;;;0.50;0.30;;;15.50;99.90;;;;;;4832695;29;20660;-70
2022/12/31 07:11:21;;;;;;;1.02;0.68;;;15.50;99.90;;;;;;4828296;29;20066;-70
2022/12/31 07:14:18;;;;;;;0.70;0.40;;;15.50;99.90;;;;;;4875518;23;20583;-82
2022/12/31 07:17:08;;;;;;;3.30;0.40;;;15.50;99.90;;;;;;4870738;29;20049;-81
2022/12/31 07:19:53;;;;;;;2.42;0.47;;;15.50;99.90;;;;;;4885762;29;20512;-80
2022/12/31 07:22:19;;;;;;;0.32;0.22;;;15.60;99.90;;;;;;4892372;29;20044;-72
2022/12/31 07:24:45;;;;;;;0.63;0.20;;;15.60;99.90;;;;;;4868651;29;20069;-74
2022/12/31 07:28:06;;;;;;;0.22;0.20;;;15.60;99.90;;;;;;4878539;29;20489;-74
2022/12/31 07:30:54;;;;;;;0.63;0.30;;;15.50;99.90;;;;;;4862855;29;20044;-75
2022/12/31 07:33:57;;;;;;;0.30;0.20;;;15.50;99.90;;;;;;4877095;29;20076;-74
2022/12/31 07:37:12;;;;;;;6.88;1.50;;;15.50;99.90;;;;;;4877983;29;20086;-73
2022/12/31 07:40:12;;;;;;;0.90;0.30;;;15.50;99.90;;;;;;4868257;29;20048;-74
2022/12/31 07:43:08;;;;;;;2.00;0.55;;;15.50;99.90;;;;;;4857020;29;20032;-72
2022/12/31 07:45:48;;;;;;;1.02;0.32;;;15.50;99.90;;;;;;4861395;29;20032;-74
2022/12/31 07:48:28;;;;;;;0.45;0.25;;;15.50;99.90;;;;;;4860001;29;20043;-74
2022/12/31 07:50:56;;;;;;;0.30;0.20;;;15.50;99.90;;;;;;4867377;29;20046;-76
2022/12/31 07:53:26;;;;;;;0.38;0.30;;;15.50;99.90;;;;;;4861181;29;20129;-76
2022/12/31 07:56:07;;;;;;;0.98;0.30;;;15.50;99.90;;;;;;4846017;29;20052;-74
2022/12/31 07:58:38;;;;;;;0.55;0.40;;;15.50;99.90;;;;;;4873129;29;20036;-75
2022/12/31 08:01:09;;;;;;;0.70;0.43;;;15.40;99.90;;;;;;4863122;29;20033;-75
2022/12/31 08:03:50;;;;;;;0.32;0.30;;;15.40;99.90;;;;;;4878970;29;20044;-74
2022/12/31 08:06:37;;;;;;;0.65;0.35;;;15.40;99.90;;;;;;4863386;29;20051;-74
2022/12/31 08:09:16;;;;;;;0.65;0.30;;;15.40;99.90;;;;;;4868930;29;20056;-75
2022/12/31 08:11:57;;;;;;;0.60;0.30;;;15.50;99.90;;;;;;4861527;29;20046;-75
2022/12/31 08:14:25;;;;;;;1.55;0.30;;;15.50;99.90;;;;;;4863974;29;20049;-72
2022/12/31 08:16:51;;;;;;;0.98;0.43;;;15.50;99.90;;;;;;4889296;29;20037;-76
2022/12/31 08:19:32;;;;;;;1.48;0.52;;;15.60;99.90;;;;;;4886664;29;20089;-77
2022/12/31 08:22:54;;;;;;;0.43;0.30;;;15.50;99.90;;;;;;4889843;29;20033;-76
2022/12/31 08:25:54;;;;;;;1.00;0.40;;;15.50;99.90;;;;;;4859053;29;20048;-74
2022/12/31 08:28:41;;;;;;;2.08;0.50;;;15.60;99.90;;;;;;4862883;29;20081;-71
2022/12/31 08:31:16;;;;;;;0.15;0.15;;;15.50;99.90;;;;;;4868500;29;20052;-74
2022/12/31 08:33:56;;;;;;;1.60;0.20;;;15.60;99.90;;;;;;4890227;29;20048;-73
2022/12/31 08:36:46;;;;;;;1.98;0.38;;;15.60;99.90;;;;;;4872717;29;20049;-75
2022/12/31 08:39:28;;;;;;;1.48;0.55;;;15.60;99.90;;;;;;4859172;29;20057;-75
2022/12/31 08:41:56;;;;;;;0.30;0.30;;;15.60;99.90;;;;;;4856127;29;20057;-77
2022/12/31 08:44:54;;;;;;;0.30;0.30;;;15.60;99.90;;;;;;4885180;29;20101;-77
2022/12/31 08:47:48;;;;;;;1.00;0.63;;;15.60;99.90;;;;;;4873507;29;20038;-76
2022/12/31 08:50:18;;;;;;;0.77;0.50;;;15.70;99.90;;;;;;4875053;29;20037;-74
2022/12/31 08:52:45;;;;;;;0.40;0.28;;;15.80;99.90;;;;;;4866420;29;20018;-75
2022/12/31 08:55:18;;;;;;;0.30;0.30;;;15.80;99.90;;;;;;4874823;29;20049;-73
2022/12/31 08:58:14;;;;;;;0.40;0.20;;;15.80;99.90;;;;;;4865379;29;20037;-73
2022/12/31 09:00:40;;;;;;;0.25;0.20;;;15.80;99.90;;;;;;4844318;29;20161;-75
2022/12/31 09:03:58;;;;;;;0.63;0.32;;;16.00;99.90;;;;;;4867128;29;20033;-74
2022/12/31 09:06:47;;;;;;;0.98;0.50;;;16.00;99.90;;;;;;4865991;29;20033;-73
2022/12/31 09:09:45;;;;;;;0.60;0.20;;;16.00;99.90;;;;;;4864540;29;20542;-73
2022/12/31 09:12:41;;;;;;;1.77;0.43;;;15.90;99.90;;;;;;4866223;29;20094;-74
2022/12/31 09:15:25;;;;;;;0.55;0.40;;;16.00;99.90;;;;;;4874134;29;20051;-73
2022/12/31 09:17:51;;;;;;;1.02;0.50;;;16.00;99.90;;;;;;4858935;29;20042;-73
2022/12/31 09:20:27;;;;;;;0.65;0.40;;;16.00;99.90;;;;;;4861329;29;20116;-73
2022/12/31 09:22:55;;;;;;;0.32;0.10;;;16.00;99.90;;;;;;4879000;29;20440;-73
2022/12/31 09:25:23;;;;;;;0.70;0.40;;;16.00;99.90;;;;;;4880201;29;20029;-73
2022/12/31 09:28:02;;;;;;;1.08;0.50;;;16.10;99.90;;;;;;4872320;29;20037;-74
2022/12/31 09:30:57;;;;;;;0.55;0.28;;;16.10;99.90;;;;;;4874148;29;20060;-73
2022/12/31 09:33:45;;;;;;;4.15;0.80;;;16.20;99.90;;;;;;4823953;29;20045;-83
2022/12/31 09:36:24;;;;;;;1.65;0.38;;;16.30;99.90;;;;;;4866888;29;20047;-78
2022/12/31 09:39:09;;;;;;;0.50;0.30;;;16.30;99.90;;;;;;4882524;29;20037;-75
2022/12/31 09:41:41;;;;;;;0.43;0.35;;;16.40;99.90;;;;;;4883089;29;20033;-75
2022/12/31 09:44:43;;;;;;;0.52;0.30;;;16.40;99.90;;;;;;4883342;29;20121;-76
2022/12/31 09:47:31;;;;;;;1.20;0.40;;;16.40;99.90;;;;;;4869059;29;20047;-75
2022/12/31 09:50:34;;;;;;;0.75;0.30;;;16.40;99.90;;;;;;4881508;29;20040;-61
2022/12/31 09:53:38;;;;;;;2.60;1.00;;;16.50;99.90;;;;;;4873889;29;20091;-60
2022/12/31 09:56:46;;;;;;;0.73;0.40;;;16.50;99.90;;;;;;4862264;29;20128;-76
2022/12/31 09:59:42;;;;;;;2.15;0.68;;;16.50;99.90;;;;;;4854605;29;20040;-77
2022/12/31 10:02:49;;;;;;;0.98;0.35;;;16.70;99.90;;;;;;4881244;29;20052;-77
2022/12/31 10:05:55;;;;;;;1.25;0.60;;;16.70;99.90;;;;;;4861523;29;20116;-77
2022/12/31 10:08:46;;;;;;;0.65;0.43;;;16.60;99.90;;;;;;4853699;29;20034;-77
2022/12/31 10:11:38;;;;;;;1.27;0.50;;;16.60;99.90;;;;;;4872065;29;20029;-73
2022/12/31 10:14:39;;;;;;;0.20;0.20;;;16.60;99.90;;;;;;4872840;29;20041;-73
2022/12/31 10:17:52;;;;;;;1.30;0.22;;;16.60;99.90;;;;;;4855264;29;20120;-74
2022/12/31 10:20:31;;;;;;;0.22;0.20;;;17.00;99.90;;;;;;4851856;29;20050;-77
2022/12/31 10:23:37;;;;;;;2.58;0.93;;;17.50;99.90;;;;;;4864538;29;20067;-72
2022/12/31 10:26:52;;;;;;;0.55;0.38;;;18.10;99.90;;;;;;4860624;29;20041;-77
2022/12/31 10:29:46;;;;;;;0.93;0.45;;;18.50;99.90;;;;;;4860926;29;20041;-77
2022/12/31 10:32:40;;;;;;;0.38;0.35;;;19.30;99.90;;;;;;4864308;29;20033;-75
2022/12/31 10:35:35;;;;;;;0.57;0.30;;;20.20;99.90;;;;;;4872203;29;20065;-78
2022/12/31 10:38:44;;;;;;;1.20;0.30;;;19.70;99.90;;;;;;4862023;29;20108;-77
2022/12/31 10:41:50;;;;;;;0.50;0.30;;;20.10;99.90;;;;;;4876230;29;20033;-76
2022/12/31 10:44:39;;;;;;;0.90;0.40;;;20.20;99.90;;;;;;4861213;29;20505;-75
2022/12/31 10:47:47;;;;;;;1.00;0.40;;;19.50;99.90;;;;;;4874653;29;20049;-78
2022/12/31 10:50:40;;;;;;;2.20;0.57;;;20.60;99.90;;;;;;4884649;29;20033;-75
2022/12/31 10:53:36;;;;;;;1.80;0.60;;;20.70;99.90;;;;;;4866832;29;20065;-76
2022/12/31 10:57:05;;;;;;;0.15;0.15;;;20.40;99.90;;;;;;4859220;29;20038;-76
2022/12/31 11:00:11;;;;;;;1.55;0.35;;;20.10;99.90;;;;;;4846694;29;20080;-77
2022/12/31 11:02:58;;;;;;;1.65;0.38;;;19.70;99.90;;;;;;4864173;29;20120;-77
2022/12/31 11:06:04;;;;;;;0.35;0.20;;;19.90;99.90;;;;;;4843167;29;20049;-76
2022/12/31 11:09:12;;;;;;;1.27;0.55;;;20.40;99.90;;;;;;4867055;29;20665;-76
2022/12/31 11:12:20;;;;;;;3.53;1.48;;;21.00;99.90;;;;;;4878541;29;20441;-77
2022/12/31 11:15:20;;;;;;;0.60;0.20;;;20.00;99.90;;;;;;4871788;29;20429;-77
2022/12/31 11:18:01;;;;;;;2.55;0.47;;;19.60;99.90;;;;;;4861454;29;20073;-75
2022/12/31 11:20:55;;;;;;;0.20;0.20;;;20.30;99.90;;;;;;4840467;29;20033;-77
2022/12/31 11:23:43;;;;;;;0.30;0.25;;;19.60;99.90;;;;;;4861652;29;20033;-74
2022/12/31 11:27:05;;;;;;;2.55;0.35;;;19.80;99.90;;;;;;4875867;29;20048;-74
2022/12/31 11:30:17;;;;;;;1.27;0.55;;;20.20;99.90;;;;;;4867987;29;20112;-74
2022/12/31 11:33:12;;;;;;;1.58;0.43;;;20.20;99.90;;;;;;4876753;29;20044;-75
2022/12/31 11:36:16;;;;;;;0.95;0.38;;;20.10;99.90;;;;;;4822855;29;20065;-76
2022/12/31 11:39:13;;;;;;;2.65;0.35;;;19.70;99.90;;;;;;4863801;29;20030;-77
2022/12/31 11:41:44;;;;;;;1.33;0.35;;;19.30;99.90;;;;;;4877890;29;20044;-77
2022/12/31 11:44:58;;;;;;;0.80;0.50;;;19.10;99.90;;;;;;4885356;29;20025;-72
2022/12/31 11:48:05;;;;;;;2.70;0.70;;;18.90;99.90;;;;;;4867691;29;20125;-78
2022/12/31 11:51:19;;;;;;;0.70;0.25;;;19.00;99.90;;;;;;4855117;29;20461;-77
2022/12/31 11:54:06;;;;;;;4.25;0.32;;;18.90;99.90;;;;;;4866626;29;20037;-77
2022/12/31 11:56:39;;;;;;;0.40;0.25;;;18.90;99.90;;;;;;4864823;29;20085;-76
2022/12/31 11:59:11;;;;;;;0.70;0.38;;;19.10;99.90;;;;;;4883062;29;20034;-76
2022/12/31 12:01:59;;;;;;;0.85;0.35;;;18.80;99.90;;;;;;4886431;29;20495;-76
2022/12/31 12:04:25;;;;;;;0.85;0.30;;;18.80;99.90;;;;;;4884975;29;20036;-74
2022/12/31 12:06:52;;;;;;;2.17;0.50;;;18.90;99.90;;;;;;4887435;29;20040;-75
2022/12/31 12:09:36;;;;;;;2.83;0.30;;;19.00;99.90;;;;;;4885476;29;20037;-74
2022/12/31 12:12:04;;;;;;;1.08;0.60;;;19.10;99.90;;;;;;4866374;29;20072;-75
2022/12/31 12:14:36;;;;;;;0.75;0.50;;;19.30;99.90;;;;;;4859141;29;20025;-74
2022/12/31 12:17:21;;;;;;;0.82;0.40;;;19.50;99.90;;;;;;4860805;29;20037;-76
2022/12/31 12:19:54;;;;;;;0.68;0.38;;;19.30;99.90;;;;;;4883079;29;20092;-77
2022/12/31 12:22:26;;;;;;;0.93;0.32;;;19.40;99.90;;;;;;4881024;29;20397;-75
2022/12/31 12:25:16;;;;;;;0.80;0.38;;;19.60;99.90;;;;;;4870272;29;20060;-74
2022/12/31 12:27:42;;;;;;;1.55;0.43;;;19.70;99.90;;;;;;4879711;29;20479;-75
2022/12/31 12:30:27;;;;;;;1.80;0.40;;;19.70;99.90;;;;;;4868486;29;20119;-74
2022/12/31 12:32:59;;;;;;;0.50;0.25;;;20.20;99.90;;;;;;4861402;29;20040;-74
2022/12/31 12:35:32;;;;;;;1.65;0.20;;;20.90;99.90;;;;;;4885616;29;20037;-75
2022/12/31 12:38:04;;;;;;;1.58;0.40;;;21.20;99.90;;;;;;4866162;29;20040;-77
2022/12/31 12:40:33;;;;;;;4.57;1.83;;;21.30;99.90;;;;;;4855562;29;20045;-73
2022/12/31 12:42:58;;;;;;;11.77;4.55;;;21.20;99.90;;;;;;4866152;29;20569;-75
2022/12/31 12:45:35;;;;;;;4.82;0.70;;;21.40;99.90;;;;;;4859387;29;20033;-74
2022/12/31 12:48:14;;;;;;;1.10;0.52;;;20.60;99.90;;;;;;4884944;29;20032;-76
2022/12/31 12:50:48;;;;;;;0.30;0.20;;;20.50;99.90;;;;;;4885710;29;20640;-77
2022/12/31 12:53:35;;;;;;;1.55;0.40;;;21.00;99.90;;;;;;4873080;29;20045;-75
2022/12/31 12:56:26;;;;;;;4.38;0.43;;;21.30;99.90;;;;;;4875442;29;20059;-76
2022/12/31 12:59:42;;;;;;;2.10;0.60;;;21.20;99.90;;;;;;4878683;29;20449;-76
2022/12/31 13:02:53;;;;;;;0.50;0.20;;;21.20;99.90;;;;;;4842445;29;20148;-75
2022/12/31 13:05:23;;;;;;;1.58;0.75;;;20.90;99.90;;;;;;4871212;29;20401;-81
2022/12/31 13:07:57;;;;;;;2.95;0.70;;;20.90;99.90;;;;;;4879736;29;20037;-76
2022/12/31 13:10:57;;;;;;;1.88;0.20;;;21.10;99.90;;;;;;4845455;29;20490;-78
2022/12/31 13:13:44;;;;;;;1.58;0.40;;;21.00;99.90;;;;;;4862035;23;20470;-65
2022/12/31 13:16:34;;;;;;;0.30;0.10;;;21.10;99.90;;;;;;4845153;29;20124;-55
2022/12/31 13:19:47;;;;;;;0.20;0.20;;;20.60;99.90;;;;;;4858457;29;20487;-57
2022/12/31 13:22:32;;;;;;;1.02;0.63;;;20.70;99.90;;;;;;4834066;29;20041;-57
2022/12/31 13:25:42;;;;;;;0.40;0.20;;;20.70;99.90;;;;;;4852353;29;20045;-57
2022/12/31 13:28:14;;;;;;;2.67;0.50;;;20.60;99.90;;;;;;4856599;29;20038;-71
2022/12/31 13:30:47;;;;;;;0.28;0.25;;;20.30;99.90;;;;;;4845564;29;20323;-72
2022/12/31 13:33:25;;;;;;;1.10;0.40;;;20.10;99.90;;;;;;4845039;29;20384;-73
2022/12/31 13:35:57;;;;;;;2.40;1.20;;;19.90;99.90;;;;;;4813060;29;20380;-73
2022/12/31 13:38:33;;;;;;;4.18;1.30;;;19.90;99.90;;;;;;4849274;29;20037;-74
2022/12/31 13:41:08;;;;;;;4.55;1.00;;;19.80;99.90;;;;;;4848379;29;20041;-73
2022/12/31 13:43:55;;;;;;;0.90;0.50;;;19.80;99.90;;;;;;4847790;29;20054;-73
2022/12/31 13:46:57;;;;;;;0.47;0.30;;;19.70;99.90;;;;;;4849478;29;20037;-73
2022/12/31 13:49:44;;;;;;;0.68;0.40;;;19.50;99.90;;;;;;4845307;29;20430;-73
2022/12/31 13:52:35;;;;;;;1.50;0.65;;;19.00;99.90;;;;;;4847309;29;20042;-73
2022/12/31 13:55:21;;;;;;;;;;;19.00;99.90;;;;;;4854635;29;20524;-73
2022/12/31 13:58:01;;;;;;;1.08;0.60;;;19.00;99.90;;;;;;4845831;29;19920;-73